Time;durP1;ratioP1;P1;durP2;ratioP2;P2;SDS_P1;SDS_P2;PMS_P1;PMS_P2;Temp;Humidity;BMP_temperature;BMP_pressure;BME280_temperature;BME280_humidity;BME280_pressure;Samples;Min_cycle;Max_cycle;Signal;HPM_P1;HPM_P2
2024/02/26 00:00:15;;;;;;;7.95;3.42;;;;;;;13.86;57.39;98512.28;4936172;29;20415;-68
2024/02/26 00:02:41;;;;;;;5.60;3.25;;;;;;;13.86;57.32;98512.28;4952178;29;20395;-69
2024/02/26 00:05:07;;;;;;;4.25;3.10;;;;;;;13.91;57.25;98522.34;4936249;29;20125;-70
2024/02/26 00:07:33;;;;;;;5.03;3.22;;;;;;;13.86;57.18;98525.41;4952138;29;20034;-71
2024/02/26 00:09:58;;;;;;;5.30;3.08;;;;;;;13.91;57.13;98519.72;4936626;29;20039;-69
2024/02/26 00:12:24;;;;;;;5.40;3.30;;;;;;;13.86;57.35;98514.91;4951989;29;20508;-70
2024/02/26 00:14:49;;;;;;;5.72;3.72;;;;;;;13.91;57.11;98510.06;4951721;29;20467;-69
2024/02/26 00:17:15;;;;;;;7.45;4.68;;;;;;;13.91;57.26;98511.84;4952532;28;20086;-70
2024/02/26 00:19:41;;;;;;;8.75;5.18;;;;;;;13.92;57.00;98513.53;4951829;28;20414;-71
2024/02/26 00:22:06;;;;;;;7.85;5.50;;;;;;;13.92;56.91;98519.59;4951974;29;20062;-71
2024/02/26 00:24:32;;;;;;;9.38;5.78;;;;;;;13.92;57.18;98511.72;4951831;29;20039;-69
2024/02/26 00:26:58;;;;;;;8.40;5.85;;;;;;;13.90;57.04;98497.09;4953704;28;20443;-71
2024/02/26 00:29:25;;;;;;;11.93;6.45;;;;;;;13.92;57.29;98506.47;4955485;28;20507;-70
2024/02/26 00:31:51;;;;;;;8.68;5.72;;;;;;;13.93;56.93;98502.03;4955390;29;20126;-70
2024/02/26 00:34:16;;;;;;;9.32;6.10;;;;;;;13.89;56.84;98490.19;4955564;28;20106;-69
2024/02/26 00:36:42;;;;;;;9.02;5.75;;;;;;;13.92;56.81;98498.59;4955451;28;20065;-68
2024/02/26 00:39:07;;;;;;;9.85;6.03;;;;;;;13.92;56.75;98501.22;4955511;29;20039;-69
2024/02/26 00:41:33;;;;;;;12.20;6.60;;;;;;;13.87;56.99;98487.72;4955347;29;20035;-69
2024/02/26 00:43:59;;;;;;;11.05;6.18;;;;;;;13.89;56.81;98488.38;4955313;29;20039;-68
2024/02/26 00:46:24;;;;;;;8.60;6.07;;;;;;;13.89;56.99;98491.00;4954774;29;20074;-69
2024/02/26 00:48:50;;;;;;;9.25;5.78;;;;;;;13.83;56.85;98469.78;4955278;29;20023;-70
2024/02/26 00:51:15;;;;;;;11.68;5.80;;;;;;;13.89;56.80;98471.81;4939076;29;20402;-69
2024/02/26 00:53:41;;;;;;;8.18;5.40;;;;;;;13.89;56.92;98480.50;4954811;29;20050;-68
2024/02/26 00:56:06;;;;;;;8.35;5.57;;;;;;;13.87;56.89;98461.47;4955026;29;20023;-69
2024/02/26 00:58:32;;;;;;;9.30;5.80;;;;;;;13.91;56.78;98472.50;4939012;29;20038;-70
2024/02/26 01:00:58;;;;;;;8.00;5.50;;;;;;;13.89;56.94;98464.78;4955364;29;20460;-69
2024/02/26 01:03:23;;;;;;;9.90;5.53;;;;;;;13.90;56.80;98465.63;4938851;29;20121;-69
2024/02/26 01:05:49;;;;;;;8.43;5.53;;;;;;;13.86;56.61;98461.63;4954720;29;20023;-70
2024/02/26 01:08:14;;;;;;;8.52;5.50;;;;;;;13.89;56.63;98462.16;4970932;28;20035;-69
2024/02/26 01:10:40;;;;;;;7.38;5.13;;;;;;;13.90;56.72;98460.38;4954895;29;20479;-68
2024/02/26 01:13:07;;;;;;;8.15;5.15;;;;;;;13.89;56.65;98458.72;4955946;28;20035;-70
2024/02/26 01:15:33;;;;;;;7.25;5.05;;;;;;;13.89;56.61;98458.72;4954865;29;20031;-69
2024/02/26 01:17:58;;;;;;;9.68;5.20;;;;;;;13.85;56.65;98452.94;4954515;29;20091;-69
2024/02/26 01:20:24;;;;;;;7.18;4.75;;;;;;;13.87;56.59;98453.59;4938605;29;20031;-71
2024/02/26 01:22:49;;;;;;;6.93;4.70;;;;;;;13.87;56.67;98450.16;4954949;29;20090;-68
2024/02/26 01:25:15;;;;;;;7.47;4.93;;;;;;;13.84;56.66;98440.78;4970886;28;20411;-69
2024/02/26 01:27:42;;;;;;;7.47;4.38;;;;;;;13.88;56.58;98446.53;4970341;28;20031;-69
2024/02/26 01:30:08;;;;;;;9.13;4.43;;;;;;;13.84;56.51;98437.34;4938725;29;20375;-68
2024/02/26 01:32:35;;;;;;;9.13;4.72;;;;;;;13.86;56.43;98436.19;4954412;29;20399;-69
2024/02/26 01:35:03;;;;;;;8.75;4.45;;;;;;;13.84;56.43;98438.16;4938591;29;20031;-69
2024/02/26 01:37:29;;;;;;;7.22;4.57;;;;;;;13.78;56.68;98433.47;4937998;28;20047;-69
2024/02/26 01:39:55;;;;;;;5.70;4.05;;;;;;;13.82;56.50;98441.88;4954346;29;20551;-69
2024/02/26 01:42:21;;;;;;;5.93;4.00;;;;;;;13.81;56.48;98443.69;4938152;29;20142;-69
2024/02/26 01:44:46;;;;;;;8.80;4.18;;;;;;;13.79;56.59;98436.91;4938143;29;20102;-68
2024/02/26 01:47:12;;;;;;;7.05;4.28;;;;;;;13.74;56.78;98425.06;4953478;29;20059;-68
2024/02/26 01:49:38;;;;;;;8.32;4.22;;;;;;;13.75;56.47;98420.66;4938080;29;20138;-70
2024/02/26 01:52:03;;;;;;;8.15;3.80;;;;;;;13.74;56.50;98419.84;4954055;29;20494;-68
2024/02/26 01:54:29;;;;;;;8.50;4.00;;;;;;;13.70;56.46;98423.69;4954162;29;20133;-69
2024/02/26 01:56:55;;;;;;;7.07;3.75;;;;;;;13.72;56.53;98427.00;4953885;29;20050;-70
2024/02/26 01:59:20;;;;;;;6.97;3.65;;;;;;;13.68;56.44;98428.28;4937871;29;20031;-69
2024/02/26 02:01:48;;;;;;;6.88;4.00;;;;;;;13.71;56.51;98424.53;4953789;29;20039;-69
2024/02/26 02:04:14;;;;;;;5.50;3.50;;;;;;;13.65;56.46;98425.94;4937310;29;20575;-69
2024/02/26 02:06:39;;;;;;;6.35;4.07;;;;;;;13.67;56.52;98436.28;4953717;29;20030;-70
2024/02/26 02:09:06;;;;;;;8.18;4.18;;;;;;;13.67;56.76;98431.84;4937713;29;20039;-69
2024/02/26 02:11:33;;;;;;;8.20;3.55;;;;;;;13.61;56.53;98421.94;4937879;29;20119;-69
2024/02/26 02:13:59;;;;;;;6.80;3.50;;;;;;;13.66;56.67;98432.00;4953642;29;20035;-69
2024/02/26 02:16:24;;;;;;;5.55;3.47;;;;;;;13.65;56.57;98425.13;4955064;28;20042;-69
2024/02/26 02:18:50;;;;;;;5.25;3.28;;;;;;;13.65;56.65;98430.38;4937335;29;20036;-70
2024/02/26 02:21:15;;;;;;;6.07;3.55;;;;;;;13.62;56.74;98430.66;4937735;29;20047;-69
2024/02/26 02:23:46;;;;;;;6.25;3.53;;;;;;;13.61;56.52;98429.00;4953903;29;20539;-69
2024/02/26 02:26:12;;;;;;;4.47;3.08;;;;;;;13.58;56.53;98432.72;4955223;28;20114;-68
2024/02/26 02:28:37;;;;;;;7.25;3.63;;;;;;;13.55;56.66;98433.00;4937380;29;20506;-70
2024/02/26 02:31:03;;;;;;;4.93;3.22;;;;;;;13.48;56.75;98429.31;4937356;29;20035;-70
2024/02/26 02:33:29;;;;;;;6.00;3.30;;;;;;;13.47;56.63;98425.88;4953385;29;20038;-70
2024/02/26 02:35:55;;;;;;;7.00;3.53;;;;;;;13.49;56.86;98428.31;4969541;28;20062;-69
2024/02/26 02:38:21;;;;;;;5.63;3.38;;;;;;;13.47;56.89;98428.50;4953345;29;20027;-71
2024/02/26 02:40:46;;;;;;;6.15;3.17;;;;;;;13.48;56.83;98438.00;4953339;28;20074;-70
2024/02/26 02:43:12;;;;;;;5.35;3.40;;;;;;;13.47;56.87;98435.53;4952972;29;20043;-69
2024/02/26 02:45:37;;;;;;;5.50;3.00;;;;;;;13.47;57.00;98431.13;4937060;29;20043;-70
2024/02/26 02:48:03;;;;;;;4.70;3.20;;;;;;;13.46;56.83;98431.28;4936611;29;20039;-69
2024/02/26 02:50:29;;;;;;;4.35;2.88;;;;;;;13.43;56.90;98429.75;4968727;28;20027;-69
2024/02/26 02:52:54;;;;;;;5.72;3.30;;;;;;;13.40;56.59;98437.91;4952782;29;20035;-70
2024/02/26 02:55:20;;;;;;;10.45;3.45;;;;;;;13.40;56.82;98427.41;4953326;29;20038;-70
2024/02/26 02:57:45;;;;;;;7.35;3.50;;;;;;;13.41;57.17;98433.47;4952777;29;20039;-70
2024/02/26 03:00:11;;;;;;;4.30;2.88;;;;;;;13.38;57.04;98432.78;4954185;28;20033;-70
2024/02/26 03:02:37;;;;;;;6.30;3.10;;;;;;;13.37;57.22;98431.13;4952694;29;20053;-70
2024/02/26 03:05:04;;;;;;;4.30;2.88;;;;;;;13.39;56.84;98429.22;4936784;29;20027;-70
2024/02/26 03:07:29;;;;;;;5.43;3.15;;;;;;;13.36;56.76;98431.28;4936467;29;20027;-70
2024/02/26 03:09:54;;;;;;;6.72;3.15;;;;;;;13.38;56.93;98434.59;4936698;29;20038;-70
2024/02/26 03:12:20;;;;;;;7.03;2.90;;;;;;;13.37;57.04;98435.56;4952686;29;20047;-71
2024/02/26 03:14:46;;;;;;;5.32;2.92;;;;;;;13.35;57.03;98437.50;4936679;29;20471;-71
2024/02/26 03:17:11;;;;;;;4.85;2.92;;;;;;;13.37;56.78;98438.19;4936458;29;20050;-72
2024/02/26 03:19:37;;;;;;;6.10;3.30;;;;;;;13.33;57.08;98435.03;4952472;29;20058;-71
2024/02/26 03:22:02;;;;;;;7.18;3.00;;;;;;;13.37;56.96;98438.19;4937079;29;20035;-72
2024/02/26 03:24:28;;;;;;;3.92;2.78;;;;;;;13.38;57.19;98442.47;4952989;29;20562;-72
2024/02/26 03:26:53;;;;;;;6.53;3.08;;;;;;;13.37;57.04;98439.00;4952355;29;20031;-72
2024/02/26 03:29:19;;;;;;;5.50;3.08;;;;;;;13.34;57.03;98428.78;4952462;29;20027;-72
2024/02/26 03:31:44;;;;;;;4.03;2.88;;;;;;;13.39;56.95;98426.59;4952378;29;20042;-72
2024/02/26 03:34:12;;;;;;;3.83;2.55;;;;;;;13.41;56.87;98438.72;4952978;29;20042;-71
2024/02/26 03:36:37;;;;;;;6.85;3.10;;;;;;;13.36;57.07;98421.63;4952440;29;20031;-72
2024/02/26 03:39:07;;;;;;;4.80;2.97;;;;;;;13.37;57.03;98422.44;4952449;29;20038;-71
2024/02/26 03:41:33;;;;;;;4.88;2.55;;;;;;;13.38;56.93;98424.94;4936287;29;20573;-72
2024/02/26 03:43:59;;;;;;;5.90;3.05;;;;;;;13.42;56.89;98425.47;4951904;29;20050;-72
2024/02/26 03:46:24;;;;;;;4.80;3.40;;;;;;;13.40;57.01;98424.78;4967761;28;20059;-71
2024/02/26 03:48:50;;;;;;;5.28;3.50;;;;;;;13.34;57.00;98407.00;4952334;29;20110;-72
2024/02/26 03:51:15;;;;;;;8.85;3.90;;;;;;;13.46;57.18;98426.84;4952132;29;20035;-72
2024/02/26 03:53:40;;;;;;;7.10;4.57;;;;;;;13.46;56.90;98423.41;4951958;28;20034;-74
2024/02/26 03:56:06;;;;;;;5.50;4.47;;;;;;;13.48;56.93;98424.88;4952508;28;20479;-73
2024/02/26 03:58:33;;;;;;;6.05;4.13;;;;;;;13.48;56.97;98429.31;4967736;28;20043;-72
2024/02/26 04:00:59;;;;;;;6.00;4.15;;;;;;;13.45;56.85;98422.56;4952380;28;20031;-71
2024/02/26 04:03:25;;;;;;;9.38;4.05;;;;;;;13.50;57.00;98428.19;4940126;29;20385;-71
2024/02/26 04:05:51;;;;;;;7.70;4.20;;;;;;;13.51;56.92;98421.16;4971866;28;20094;-73
2024/02/26 04:08:16;;;;;;;8.95;4.93;;;;;;;13.52;56.98;98423.66;4955528;29;20106;-71
2024/02/26 04:10:42;;;;;;;7.65;4.20;;;;;;;13.48;56.78;98418.84;4956720;28;20046;-70
2024/02/26 04:13:07;;;;;;;6.38;3.92;;;;;;;13.51;56.77;98421.97;4955353;28;20103;-71
2024/02/26 04:15:33;;;;;;;6.32;3.83;;;;;;;13.54;56.96;98426.13;4955529;28;20070;-71
2024/02/26 04:17:59;;;;;;;7.20;3.50;;;;;;;13.51;57.01;98421.97;4955722;29;20506;-71
2024/02/26 04:20:24;;;;;;;5.90;3.78;;;;;;;13.51;56.78;98421.97;4955697;28;20043;-71
2024/02/26 04:22:50;;;;;;;6.93;3.72;;;;;;;13.49;56.79;98420.47;4939635;29;20427;-86
2024/02/26 04:25:15;;;;;;;6.88;3.70;;;;;;;13.46;57.02;98413.72;4940836;29;20039;-85
2024/02/26 04:27:41;;;;;;;5.90;3.33;;;;;;;13.53;59.17;98427.91;4957237;28;20039;-82
2024/02/26 04:30:07;;;;;;;6.72;3.50;;;;;;;13.48;57.90;98417.03;4973091;28;20446;-85
2024/02/26 04:32:34;;;;;;;6.43;3.55;;;;;;;13.52;58.03;98428.91;4955642;29;20028;-75
2024/02/26 04:35:00;;;;;;;17.30;3.15;;;;;;;13.66;64.72;98421.50;4957348;28;20063;-73
2024/02/26 04:37:30;;;;;;;15.70;3.13;;;;;;;14.04;68.12;98425.75;4940483;29;20089;-77
2024/02/26 04:39:59;;;;;;;15.48;2.83;;;;;;;14.07;65.76;98425.47;4955748;29;20093;-77
2024/02/26 04:42:25;;;;;;;11.93;3.00;;;;;;;14.07;64.87;98416.75;4954578;29;20242;-78
2024/02/26 04:44:51;;;;;;;16.58;3.47;;;;;;;14.09;64.26;98422.69;4986688;28;20509;-77
2024/02/26 04:47:16;;;;;;;18.30;3.63;;;;;;;14.08;63.08;98415.78;4969445;28;20051;-76
2024/02/26 04:49:42;;;;;;;5.65;2.88;;;;;;;14.02;62.57;98416.38;4955497;29;20402;-78
2024/02/26 04:52:07;;;;;;;8.88;2.80;;;;;;;13.98;62.00;98415.84;4954800;28;20039;-74
2024/02/26 04:54:33;;;;;;;8.20;2.97;;;;;;;13.91;61.56;98409.53;4954485;28;20457;-76
2024/02/26 04:56:59;;;;;;;6.03;2.60;;;;;;;13.85;61.11;98421.44;4963277;28;20039;-76
2024/02/26 04:59:26;;;;;;;6.07;3.00;;;;;;;13.86;60.92;98414.38;4970451;28;20031;-76
2024/02/26 05:01:52;;;;;;;6.28;3.28;;;;;;;13.80;60.49;98418.41;4954957;28;20039;-70
2024/02/26 05:04:18;;;;;;;5.93;3.08;;;;;;;13.78;60.35;98419.53;4952081;28;20043;-70
2024/02/26 05:06:44;;;;;;;6.35;3.20;;;;;;;13.74;59.85;98419.84;4953891;28;20078;-75
2024/02/26 05:09:09;;;;;;;6.57;3.30;;;;;;;13.72;59.81;98420.94;4969328;28;20603;-74
2024/02/26 05:11:35;;;;;;;4.93;3.15;;;;;;;13.69;59.63;98421.22;4972598;28;20114;-76
2024/02/26 05:14:00;;;;;;;8.07;3.13;;;;;;;13.66;59.61;98424.13;4954337;28;20031;-80
2024/02/26 05:16:27;;;;;;;5.93;3.15;;;;;;;13.61;59.45;98411.44;4954925;28;20034;-80
2024/02/26 05:18:53;;;;;;;7.90;3.33;;;;;;;13.59;59.45;98413.41;4970501;28;20553;-81
2024/02/26 05:21:18;;;;;;;5.72;3.00;;;;;;;13.61;59.05;98429.00;4954976;28;20038;-80
2024/02/26 05:23:49;;;;;;;7.72;3.45;;;;;;;13.61;58.95;98423.75;4955166;28;20507;-81
2024/02/26 05:26:23;;;;;;;5.03;3.20;;;;;;;13.61;58.89;98424.56;4954994;28;20043;-81
2024/02/26 05:28:49;;;;;;;6.78;3.28;;;;;;;13.61;58.71;98421.13;4954968;28;20035;-81
2024/02/26 05:31:14;;;;;;;5.43;3.17;;;;;;;13.62;58.27;98420.16;4954842;28;20039;-81
2024/02/26 05:33:40;;;;;;;5.38;3.25;;;;;;;13.60;58.40;98419.47;4971142;28;20023;-79
2024/02/26 05:36:06;;;;;;;6.13;3.40;;;;;;;13.59;58.53;98416.03;4955039;28;20047;-82
2024/02/26 05:38:31;;;;;;;5.65;3.20;;;;;;;13.62;57.92;98426.22;4971055;28;20444;-80
2024/02/26 05:40:58;;;;;;;9.25;3.67;;;;;;;13.68;57.95;98438.78;4970783;28;20039;-81
2024/02/26 05:43:27;;;;;;;9.25;3.70;;;;;;;13.71;58.12;98437.63;4971378;28;20063;-80
2024/02/26 05:45:52;;;;;;;;;;;;;;;13.74;57.89;98445.22;4971312;28;20041;-80
2024/02/26 05:48:19;;;;;;;11.43;4.88;;;;;;;13.70;57.62;98444.69;4955216;28;19922;-79
2024/02/26 05:50:47;;;;;;;5.93;3.50;;;;;;;13.79;57.60;98450.88;4954964;29;20102;-81
2024/02/26 05:53:13;;;;;;;5.57;3.33;;;;;;;13.81;57.59;98456.81;4970877;28;20483;-80
2024/02/26 05:55:38;;;;;;;5.88;3.50;;;;;;;13.83;57.34;98448.78;4954794;29;20077;-80
2024/02/26 05:58:04;;;;;;;7.10;3.22;;;;;;;13.86;57.37;98449.31;4955076;28;20039;-81
2024/02/26 06:00:29;;;;;;;8.02;3.33;;;;;;;13.94;56.83;98449.41;4954683;28;20039;-80
2024/02/26 06:02:55;;;;;;;6.63;3.55;;;;;;;13.99;56.93;98459.47;4954510;28;20493;-81
2024/02/26 06:05:20;;;;;;;5.68;3.72;;;;;;;14.05;56.60;98456.28;4970246;28;20499;-81
2024/02/26 06:07:46;;;;;;;4.93;3.50;;;;;;;14.06;56.38;98451.88;4953984;28;20043;-81
2024/02/26 06:10:13;;;;;;;6.32;3.88;;;;;;;14.08;56.13;98450.72;4969787;28;20039;-79
2024/02/26 06:12:39;;;;;;;6.05;3.90;;;;;;;14.16;56.13;98455.25;4969962;28;20031;-79
2024/02/26 06:15:04;;;;;;;6.20;3.65;;;;;;;14.22;55.81;98459.91;4970151;28;20035;-80
2024/02/26 06:17:30;;;;;;;8.88;4.28;;;;;;;14.25;55.93;98457.00;4971945;28;20062;-79
2024/02/26 06:19:56;;;;;;;7.47;4.00;;;;;;;14.30;55.69;98460.00;4954439;28;20410;-81
2024/02/26 06:22:21;;;;;;;6.60;4.30;;;;;;;14.34;55.75;98465.78;4970051;28;20035;-80
2024/02/26 06:24:47;;;;;;;6.57;4.38;;;;;;;14.34;55.59;98459.69;4969935;28;20042;-80
2024/02/26 06:27:12;;;;;;;7.60;4.70;;;;;;;14.40;55.42;98467.00;4953851;28;20106;-80
2024/02/26 06:29:38;;;;;;;8.93;5.10;;;;;;;14.44;55.34;98471.81;4955843;28;20035;-79
2024/02/26 06:32:03;;;;;;;9.52;5.40;;;;;;;14.47;55.31;98473.31;4970043;28;20034;-80
2024/02/26 06:34:29;;;;;;;7.95;5.40;;;;;;;14.50;55.29;98473.03;4969826;28;20035;-80
2024/02/26 06:36:54;;;;;;;8.00;5.90;;;;;;;14.50;55.08;98466.91;4970333;28;20086;-81
2024/02/26 06:39:20;;;;;;;8.88;5.80;;;;;;;14.58;55.09;98472.25;4953892;28;20043;-81
2024/02/26 06:41:46;;;;;;;7.75;5.57;;;;;;;14.60;55.07;98479.06;4954831;28;20105;-81
2024/02/26 06:44:13;;;;;;;9.25;6.65;;;;;;;14.63;54.85;98477.94;4953611;28;20129;-82
2024/02/26 06:46:39;;;;;;;10.75;7.32;;;;;;;14.69;54.88;98473.88;4953106;29;20129;-86
2024/02/26 06:49:05;;;;;;;13.15;7.50;;;;;;;14.68;54.80;98469.63;4969459;28;20059;-82
2024/02/26 06:51:30;;;;;;;12.63;7.55;;;;;;;14.76;54.60;98477.56;4969504;28;20035;-84
2024/02/26 06:53:56;;;;;;;13.90;7.57;;;;;;;14.79;54.63;98477.28;4969526;28;20055;-82
2024/02/26 06:56:21;;;;;;;10.25;7.30;;;;;;;14.81;54.63;98477.94;4955009;28;20032;-81
2024/02/26 06:58:47;;;;;;;12.95;7.57;;;;;;;14.84;54.37;98478.44;4954857;28;20031;-81
2024/02/26 07:01:12;;;;;;;13.15;8.68;;;;;;;14.87;54.45;98473.88;4954674;28;20040;-80
2024/02/26 07:03:42;;;;;;;15.85;8.23;;;;;;;14.90;54.45;98474.41;4953397;29;20430;-81
2024/02/26 07:06:08;;;;;;;17.70;9.40;;;;;;;14.92;54.23;98487.41;4953476;29;20063;-82
2024/02/26 07:08:34;;;;;;;18.80;10.38;;;;;;;14.94;54.20;98481.03;4969435;28;20427;-80
2024/02/26 07:10:59;;;;;;;18.40;12.88;;;;;;;14.92;54.21;98477.69;4954614;28;20031;-80
2024/02/26 07:13:25;;;;;;;20.80;13.07;;;;;;;14.94;54.21;98464.41;4955107;28;20027;-80
2024/02/26 07:15:50;;;;;;;21.60;13.88;;;;;;;15.01;54.19;98481.25;4953176;29;20034;-81
2024/02/26 07:18:15;;;;;;;18.75;13.60;;;;;;;15.02;54.07;98472.34;4969072;28;20550;-80
2024/02/26 07:20:41;;;;;;;21.90;13.63;;;;;;;15.05;54.13;98477.31;4937276;29;20057;-81
2024/02/26 07:23:06;;;;;;;20.80;13.77;;;;;;;15.05;54.03;98477.31;4969063;28;20396;-81
2024/02/26 07:25:32;;;;;;;19.58;13.45;;;;;;;15.09;53.97;98480.47;4953638;29;20063;-81
2024/02/26 07:27:57;;;;;;;16.73;11.80;;;;;;;15.08;54.06;98482.25;4953109;29;20403;-81
2024/02/26 07:30:24;;;;;;;18.23;12.77;;;;;;;15.11;53.99;98487.22;4937079;29;20035;-80
2024/02/26 07:32:50;;;;;;;17.02;11.70;;;;;;;15.09;53.83;98477.84;4953575;29;20579;-80
2024/02/26 07:35:16;;;;;;;18.50;12.15;;;;;;;15.14;53.94;98486.09;4969324;28;20031;-80
2024/02/26 07:37:42;;;;;;;19.27;11.70;;;;;;;15.14;54.01;98489.53;4956518;28;20027;-81
2024/02/26 07:40:08;;;;;;;19.05;10.98;;;;;;;15.16;53.94;98486.75;4941671;29;20054;-83
2024/02/26 07:42:33;;;;;;;14.57;10.07;;;;;;;15.14;53.92;98476.41;4973440;28;20027;-81
2024/02/26 07:44:59;;;;;;;14.52;10.35;;;;;;;15.20;53.98;98483.69;4957229;29;20538;-81
2024/02/26 07:47:24;;;;;;;15.07;9.73;;;;;;;15.19;53.88;98475.94;4957194;29;20415;-80
2024/02/26 07:49:50;;;;;;;13.98;8.88;;;;;;;15.25;53.88;98471.88;4973359;28;20042;-80
2024/02/26 07:52:15;;;;;;;15.50;9.13;;;;;;;15.32;53.87;98479.03;4973626;28;20511;-80
2024/02/26 07:54:41;;;;;;;13.68;9.30;;;;;;;15.35;53.87;98478.72;4941571;29;20143;-81
2024/02/26 07:57:07;;;;;;;20.45;8.38;;;;;;;15.42;53.83;98484.19;4975539;28;20042;-80
2024/02/26 07:59:32;;;;;;;14.18;7.90;;;;;;;15.43;53.75;98474.47;4958101;28;20124;-81
2024/02/26 08:01:58;;;;;;;12.63;8.20;;;;;;;15.47;53.61;98465.31;4973465;28;20039;-81
2024/02/26 08:04:23;;;;;;;10.55;7.40;;;;;;;15.58;53.57;98477.38;4973230;28;20039;-80
2024/02/26 08:06:49;;;;;;;15.95;9.70;;;;;;;15.61;53.58;98479.66;4957677;28;20031;-80
2024/02/26 08:09:14;;;;;;;15.95;11.43;;;;;;;15.66;53.43;98478.22;4972335;28;20027;-80
2024/02/26 08:11:40;;;;;;;17.10;11.57;;;;;;;15.71;53.41;98488.28;4972863;28;20051;-80
2024/02/26 08:14:05;;;;;;;19.15;12.75;;;;;;;15.78;53.23;98497.25;4940713;29;20368;-81
2024/02/26 08:16:31;;;;;;;20.02;12.10;;;;;;;15.83;53.27;98505.50;4940442;29;20046;-79
2024/02/26 08:18:56;;;;;;;19.17;12.27;;;;;;;15.89;53.05;98502.25;4957553;28;20483;-82
2024/02/26 08:21:22;;;;;;;22.98;12.40;;;;;;;15.96;52.93;98497.16;4956775;28;20094;-82
2024/02/26 08:23:47;;;;;;;19.20;12.80;;;;;;;16.02;52.96;98499.19;4972928;28;20035;-80
2024/02/26 08:26:12;;;;;;;20.70;12.98;;;;;;;16.05;52.81;98505.91;4972841;28;20394;-81
2024/02/26 08:28:38;;;;;;;16.92;12.55;;;;;;;16.13;52.63;98505.97;4957650;28;20043;-82
2024/02/26 08:31:03;;;;;;;19.23;11.82;;;;;;;16.16;52.32;98503.03;4956242;28;20503;-79
2024/02/26 08:33:30;;;;;;;19.23;11.90;;;;;;;16.17;52.31;98509.09;4956952;28;20087;-81
2024/02/26 08:35:59;;;;;;;17.23;10.60;;;;;;;16.21;51.96;98505.19;4972752;28;20038;-80
2024/02/26 08:38:24;;;;;;;19.48;10.60;;;;;;;16.26;51.76;98500.25;4941370;29;20111;-81
2024/02/26 08:40:50;;;;;;;19.02;9.23;;;;;;;16.34;51.57;98505.56;4940907;29;20051;-81
2024/02/26 08:43:15;;;;;;;15.23;9.23;;;;;;;16.45;51.18;98504.44;4957466;29;20372;-81
2024/02/26 08:45:41;;;;;;;18.40;9.30;;;;;;;16.49;50.88;98492.56;4972686;28;20035;-82
2024/02/26 08:48:07;;;;;;;13.57;8.85;;;;;;;16.59;50.78;98497.72;4971454;28;20095;-81
2024/02/26 08:50:33;;;;;;;14.55;9.10;;;;;;;16.67;50.45;98500.38;4972261;28;20042;-81
2024/02/26 08:53:00;;;;;;;18.05;9.77;;;;;;;16.69;50.29;98497.56;4972143;28;20036;-80
2024/02/26 08:55:26;;;;;;;16.73;9.27;;;;;;;16.77;50.04;98495.75;4971686;28;20394;-82
2024/02/26 08:57:51;;;;;;;16.95;10.25;;;;;;;16.91;49.74;98496.97;4956975;28;20031;-81
2024/02/26 09:00:20;;;;;;;18.23;9.75;;;;;;;16.97;49.80;98490.22;4955921;29;20034;-81
2024/02/26 09:02:45;;;;;;;;;;;;;;;17.14;49.55;98483.13;4956743;28;20125;-80
2024/02/26 09:05:11;;;;;;;19.75;9.50;;;;;;;17.31;49.14;98468.13;4971880;28;19965;-81
2024/02/26 09:07:36;;;;;;;18.75;10.65;;;;;;;17.49;49.04;98467.91;4971680;28;20067;-81
2024/02/26 09:10:02;;;;;;;21.05;10.65;;;;;;;17.74;48.68;98450.19;4956097;29;20419;-80
2024/02/26 09:12:27;;;;;;;15.95;10.98;;;;;;;18.05;48.40;98458.22;4955681;29;20089;-79
2024/02/26 09:14:53;;;;;;;16.60;10.80;;;;;;;18.31;47.93;98441.25;4955608;29;20038;-82
2024/02/26 09:17:18;;;;;;;19.50;10.73;;;;;;;18.55;47.79;98437.63;4955822;29;20055;-81
2024/02/26 09:19:44;;;;;;;18.27;10.00;;;;;;;18.78;47.28;98453.47;4955286;28;20035;-81
2024/02/26 09:22:09;;;;;;;17.02;9.93;;;;;;;19.00;46.79;98444.94;4939705;29;20031;-81
2024/02/26 09:24:35;;;;;;;19.17;9.27;;;;;;;19.17;46.36;98447.25;4955845;28;20039;-80
2024/02/26 09:27:00;;;;;;;16.27;8.73;;;;;;;19.23;45.44;98453.66;4955256;28;20094;-81
2024/02/26 09:29:27;;;;;;;14.98;8.50;;;;;;;19.31;44.65;98448.28;4971458;28;20035;-84
2024/02/26 09:31:52;;;;;;;13.88;8.25;;;;;;;19.56;43.96;98449.84;4971254;28;20079;-82
2024/02/26 09:34:18;;;;;;;10.30;6.93;;;;;;;19.88;43.31;98454.00;4955178;28;20055;-85
2024/02/26 09:36:43;;;;;;;15.88;6.88;;;;;;;20.21;42.75;98445.66;4971241;28;20028;-80
2024/02/26 09:39:11;;;;;;;14.18;6.80;;;;;;;20.35;42.28;98450.09;4971160;28;20126;-81
2024/02/26 09:41:37;;;;;;;14.40;7.30;;;;;;;20.40;42.06;98442.41;4956566;28;20038;-81
2024/02/26 09:44:02;;;;;;;11.20;6.95;;;;;;;20.60;41.46;98441.78;4971753;28;20351;-79
2024/02/26 09:46:28;;;;;;;15.30;7.63;;;;;;;20.84;41.01;98445.09;4970960;28;20487;-82
2024/02/26 09:48:53;;;;;;;13.88;7.53;;;;;;;20.93;40.51;98447.41;4956119;28;20035;-81
2024/02/26 09:51:19;;;;;;;13.20;8.07;;;;;;;21.04;40.62;98445.28;4955259;29;20110;-80
2024/02/26 09:53:45;;;;;;;14.70;8.07;;;;;;;21.04;39.98;98443.44;4971302;28;20038;-81
2024/02/26 09:56:14;;;;;;;15.25;9.13;;;;;;;21.02;40.22;98453.44;4972565;28;20332;-83
2024/02/26 09:58:40;;;;;;;15.95;9.23;;;;;;;20.96;39.83;98439.06;4970065;28;20046;-81
2024/02/26 10:01:10;;;;;;;12.02;8.13;;;;;;;20.95;39.83;98441.91;4970731;28;20031;-80
2024/02/26 10:03:38;;;;;;;13.55;8.43;;;;;;;20.87;39.62;98437.56;4954406;29;20050;-83
2024/02/26 10:06:05;;;;;;;17.35;10.75;;;;;;;20.84;39.67;98437.13;4970517;28;20415;-85
2024/02/26 10:08:31;;;;;;;17.77;9.30;;;;;;;20.72;40.25;98429.69;4954236;29;20126;-81
2024/02/26 10:10:57;;;;;;;16.40;9.05;;;;;;;20.66;40.16;98421.69;4970533;28;20035;-81
2024/02/26 10:13:22;;;;;;;14.82;8.25;;;;;;;20.64;40.16;98432.47;4970599;28;20054;-81
2024/02/26 10:15:48;;;;;;;13.60;8.32;;;;;;;20.52;40.22;98424.16;4955762;28;20065;-81
2024/02/26 10:18:14;;;;;;;15.40;7.63;;;;;;;20.49;40.36;98429.84;4970503;28;20027;-80
2024/02/26 10:20:39;;;;;;;13.73;7.63;;;;;;;20.41;40.65;98422.00;4955789;28;20054;-81
2024/02/26 10:23:05;;;;;;;10.93;6.85;;;;;;;20.36;40.67;98419.91;4970187;28;20082;-79
2024/02/26 10:25:31;;;;;;;11.60;7.28;;;;;;;20.32;40.89;98417.81;4969725;28;20127;-80
2024/02/26 10:28:02;;;;;;;9.00;6.70;;;;;;;20.30;40.89;98417.19;4953914;29;20123;-82
2024/02/26 10:30:27;;;;;;;11.13;6.93;;;;;;;20.29;41.07;98419.03;4970791;28;20035;-80
2024/02/26 10:32:53;;;;;;;15.32;6.70;;;;;;;20.30;41.11;98412.72;4970601;28;20384;-80
2024/02/26 10:35:20;;;;;;;11.85;6.85;;;;;;;20.30;41.39;98403.94;4970156;28;20035;-80
2024/02/26 10:37:46;;;;;;;13.20;6.80;;;;;;;20.29;41.54;98399.66;4969831;28;20493;-82
2024/02/26 10:40:12;;;;;;;11.00;6.22;;;;;;;20.37;41.52;98400.38;4969903;28;20070;-82
2024/02/26 10:42:38;;;;;;;9.88;6.38;;;;;;;20.43;41.60;98390.84;4970355;28;20044;-80
2024/02/26 10:45:05;;;;;;;10.55;6.22;;;;;;;20.61;41.45;98385.09;4953747;28;20054;-80
2024/02/26 10:47:33;;;;;;;10.33;6.40;;;;;;;20.74;41.28;98381.75;4953691;28;20163;-81
2024/02/26 10:49:58;;;;;;;11.60;6.33;;;;;;;20.70;41.19;98368.06;4955099;28;20279;-82
2024/02/26 10:52:25;;;;;;;11.43;5.63;;;;;;;20.88;40.78;98361.47;4970327;28;20042;-82
2024/02/26 10:54:51;;;;;;;9.93;5.30;;;;;;;20.99;40.75;98358.28;4970273;28;20093;-84
2024/02/26 10:57:16;;;;;;;10.25;5.35;;;;;;;21.19;40.40;98357.59;4969966;28;20031;-83
2024/02/26 10:59:42;;;;;;;12.02;5.70;;;;;;;21.25;40.23;98351.50;4969878;28;20114;-81
2024/02/26 11:02:08;;;;;;;11.20;5.80;;;;;;;21.44;39.91;98347.31;4953907;28;20031;-81
2024/02/26 11:04:34;;;;;;;10.13;5.38;;;;;;;21.56;40.11;98348.44;4969591;28;20403;-84
2024/02/26 11:07:01;;;;;;;14.77;5.22;;;;;;;21.55;40.15;98352.09;4970747;28;20031;-80
2024/02/26 11:09:26;;;;;;;9.13;4.93;;;;;;;21.43;39.66;98346.50;4969719;28;20030;-81
2024/02/26 11:11:54;;;;;;;9.43;5.18;;;;;;;21.31;40.22;98345.41;4937877;29;20031;-84
2024/02/26 11:14:20;;;;;;;10.40;5.65;;;;;;;21.28;40.08;98348.47;4969712;28;20031;-80
2024/02/26 11:16:46;;;;;;;10.55;5.05;;;;;;;21.21;39.85;98347.63;4969560;28;20403;-82
2024/02/26 11:19:12;;;;;;;7.80;4.78;;;;;;;21.15;39.54;98354.50;4969425;28;20031;-83
2024/02/26 11:21:41;;;;;;;11.13;4.65;;;;;;;21.11;39.14;98354.09;4969265;28;20090;-81